sensor_id;sensor_type;location;lat;lon;timestamp;pressure;altitude;pressure_sealevel;temperature;humidity
19672;BME280;9983;51.114;13.788;2023-03-14T00:02:38;97314.03;;;12.97;100.00
19672;BME280;9983;51.114;13.788;2023-03-14T00:07:39;97307.88;;;12.84;100.00
19672;BME280;9983;51.114;13.788;2023-03-14T00:12:40;97282.63;;;13.14;100.00
19672;BME280;9983;51.114;13.788;2023-03-14T00:17:43;97260.72;;;12.93;100.00
19672;BME280;9983;51.114;13.788;2023-03-14T00:22:43;97254.94;;;13.02;100.00
19672;BME280;9983;51.114;13.788;2023-03-14T00:27:43;97244.25;;;13.07;100.00
19672;BME280;9983;51.114;13.788;2023-03-14T00:32:43;97257.31;;;13.15;100.00
19672;BME280;9983;51.114;13.788;2023-03-14T00:37:44;97263.50;;;13.32;100.00
19672;BME280;9983;51.114;13.788;2023-03-14T00:42:44;97258.13;;;13.32;100.00
19672;BME280;9983;51.114;13.788;2023-03-14T00:47:44;97271.84;;;13.14;100.00
19672;BME280;9983;51.114;13.788;2023-03-14T00:52:45;97266.06;;;12.60;100.00
19672;BME280;9983;51.114;13.788;2023-03-14T00:57:48;97261.84;;;12.98;100.00
19672;BME280;9983;51.114;13.788;2023-03-14T01:02:48;97291.34;;;12.76;100.00
19672;BME280;9983;51.114;13.788;2023-03-14T01:07:49;97285.19;;;13.09;100.00
19672;BME280;9983;51.114;13.788;2023-03-14T01:12:49;97286.97;;;12.86;100.00
19672;BME280;9983;51.114;13.788;2023-03-14T01:17:50;97294.63;;;12.95;100.00
19672;BME280;9983;51.114;13.788;2023-03-14T01:22:50;97267.41;;;13.08;100.00
19672;BME280;9983;51.114;13.788;2023-03-14T01:27:50;97265.13;;;13.00;100.00
19672;BME280;9983;51.114;13.788;2023-03-14T01:32:50;97266.56;;;12.90;100.00
19672;BME280;9983;51.114;13.788;2023-03-14T01:37:51;97259.56;;;12.89;100.00
19672;BME280;9983;51.114;13.788;2023-03-14T01:42:58;97283.22;;;12.87;100.00
19672;BME280;9983;51.114;13.788;2023-03-14T01:48:05;97270.31;;;12.89;100.00
19672;BME280;9983;51.114;13.788;2023-03-14T01:53:05;97273.91;;;12.78;100.00
19672;BME280;9983;51.114;13.788;2023-03-14T01:58:05;97260.25;;;12.97;100.00
19672;BME280;9983;51.114;13.788;2023-03-14T02:03:10;97279.97;;;13.02;100.00
19672;BME280;9983;51.114;13.788;2023-03-14T02:08:18;97268.56;;;13.12;100.00
19672;BME280;9983;51.114;13.788;2023-03-14T02:13:20;97257.84;;;12.83;100.00
19672;BME280;9983;51.114;13.788;2023-03-14T02:18:21;97260.59;;;13.17;100.00
19672;BME280;9983;51.114;13.788;2023-03-14T02:23:39;97261.44;;;13.06;100.00
19672;BME280;9983;51.114;13.788;2023-03-14T02:28:44;97254.53;;;13.10;100.00
19672;BME280;9983;51.114;13.788;2023-03-14T02:33:44;97242.63;;;13.06;100.00
19672;BME280;9983;51.114;13.788;2023-03-14T02:39:00;97251.59;;;13.11;100.00
19672;BME280;9983;51.114;13.788;2023-03-14T02:44:11;97239.41;;;13.20;100.00
19672;BME280;9983;51.114;13.788;2023-03-14T02:49:13;97253.06;;;12.85;100.00
19672;BME280;9983;51.114;13.788;2023-03-14T02:54:15;97249.63;;;13.07;100.00
19672;BME280;9983;51.114;13.788;2023-03-14T02:59:15;97256.97;;;12.95;100.00
19672;BME280;9983;51.114;13.788;2023-03-14T03:04:16;97250.63;;;13.01;100.00
19672;BME280;9983;51.114;13.788;2023-03-14T03:09:16;97252.72;;;12.99;100.00
19672;BME280;9983;51.114;13.788;2023-03-14T03:14:16;97255.50;;;12.70;100.00
19672;BME280;9983;51.114;13.788;2023-03-14T03:19:16;97228.63;;;12.87;100.00
19672;BME280;9983;51.114;13.788;2023-03-14T03:24:17;97228.09;;;12.73;100.00
19672;BME280;9983;51.114;13.788;2023-03-14T03:29:18;97220.13;;;12.62;100.00
19672;BME280;9983;51.114;13.788;2023-03-14T03:34:18;97213.94;;;12.61;100.00
19672;BME280;9983;51.114;13.788;2023-03-14T03:39:19;97226.88;;;12.19;100.00
19672;BME280;9983;51.114;13.788;2023-03-14T03:44:19;97236.06;;;12.23;100.00
19672;BME280;9983;51.114;13.788;2023-03-14T03:49:19;97249.22;;;12.36;100.00
19672;BME280;9983;51.114;13.788;2023-03-14T03:54:20;97230.25;;;12.71;100.00
19672;BME280;9983;51.114;13.788;2023-03-14T03:59:20;97240.44;;;12.41;100.00
19672;BME280;9983;51.114;13.788;2023-03-14T04:04:21;97238.97;;;12.50;100.00
19672;BME280;9983;51.114;13.788;2023-03-14T04:09:21;97222.69;;;12.40;100.00
19672;BME280;9983;51.114;13.788;2023-03-14T04:14:21;97230.56;;;12.30;100.00
19672;BME280;9983;51.114;13.788;2023-03-14T04:19:22;97233.53;;;12.45;100.00
19672;BME280;9983;51.114;13.788;2023-03-14T04:24:22;97222.88;;;12.50;100.00
19672;BME280;9983;51.114;13.788;2023-03-14T04:29:22;97234.66;;;12.49;100.00
19672;BME280;9983;51.114;13.788;2023-03-14T04:34:23;97230.47;;;12.25;100.00
19672;BME280;9983;51.114;13.788;2023-03-14T04:39:23;97219.91;;;12.35;100.00
19672;BME280;9983;51.114;13.788;2023-03-14T04:44:23;97199.59;;;12.72;100.00
19672;BME280;9983;51.114;13.788;2023-03-14T04:49:23;97207.53;;;12.34;100.00
19672;BME280;9983;51.114;13.788;2023-03-14T04:54:24;97194.34;;;12.49;100.00
19672;BME280;9983;51.114;13.788;2023-03-14T04:59:24;97194.94;;;12.23;100.00
19672;BME280;9983;51.114;13.788;2023-03-14T05:04:24;97204.16;;;12.27;100.00
19672;BME280;9983;51.114;13.788;2023-03-14T05:09:25;97176.72;;;12.86;100.00
19672;BME280;9983;51.114;13.788;2023-03-14T05:14:25;97161.63;;;12.35;100.00
19672;BME280;9983;51.114;13.788;2023-03-14T05:19:25;97172.19;;;12.42;100.00
19672;BME280;9983;51.114;13.788;2023-03-14T05:24:26;97189.16;;;12.59;100.00
19672;BME280;9983;51.114;13.788;2023-03-14T05:29:26;97180.66;;;12.34;100.00
19672;BME280;9983;51.114;13.788;2023-03-14T05:34:26;97185.91;;;12.90;99.05
19672;BME280;9983;51.114;13.788;2023-03-14T05:39:27;97174.97;;;12.80;97.20
19672;BME280;9983;51.114;13.788;2023-03-14T05:44:27;97179.41;;;12.86;96.70
19672;BME280;9983;51.114;13.788;2023-03-14T05:49:27;97169.22;;;12.72;98.14
19672;BME280;9983;51.114;13.788;2023-03-14T05:54:27;97166.66;;;12.99;95.78
19672;BME280;9983;51.114;13.788;2023-03-14T05:59:27;97163.75;;;12.83;96.02
19672;BME280;9983;51.114;13.788;2023-03-14T06:04:28;97155.09;;;12.65;95.41
19672;BME280;9983;51.114;13.788;2023-03-14T06:09:28;97162.75;;;12.39;96.80
19672;BME280;9983;51.114;13.788;2023-03-14T06:14:28;97178.72;;;13.13;92.51
19672;BME280;9983;51.114;13.788;2023-03-14T06:19:29;97188.13;;;13.27;92.45
19672;BME280;9983;51.114;13.788;2023-03-14T06:24:29;97186.53;;;13.31;91.97
19672;BME280;9983;51.114;13.788;2023-03-14T06:29:30;97198.88;;;13.27;89.59
19672;BME280;9983;51.114;13.788;2023-03-14T06:34:30;97205.13;;;12.99;89.19
19672;BME280;9983;51.114;13.788;2023-03-14T06:39:31;97201.88;;;12.80;90.52
19672;BME280;9983;51.114;13.788;2023-03-14T06:44:31;97216.56;;;13.23;93.80
19672;BME280;9983;51.114;13.788;2023-03-14T06:49:31;97221.09;;;13.39;88.90
19672;BME280;9983;51.114;13.788;2023-03-14T06:54:32;97223.09;;;13.27;86.83
19672;BME280;9983;51.114;13.788;2023-03-14T06:59:32;97213.59;;;13.41;90.11
19672;BME280;9983;51.114;13.788;2023-03-14T07:04:32;97212.69;;;13.52;88.87
19672;BME280;9983;51.114;13.788;2023-03-14T07:09:33;97219.19;;;13.56;86.53
19672;BME280;9983;51.114;13.788;2023-03-14T07:14:34;97219.50;;;13.38;87.57
19672;BME280;9983;51.114;13.788;2023-03-14T07:19:34;97222.91;;;13.00;89.51
19672;BME280;9983;51.114;13.788;2023-03-14T07:24:34;97221.59;;;13.03;89.04
19672;BME280;9983;51.114;13.788;2023-03-14T07:29:34;97233.03;;;13.26;88.94
19672;BME280;9983;51.114;13.788;2023-03-14T07:34:35;97226.47;;;13.39;87.87
19672;BME280;9983;51.114;13.788;2023-03-14T07:39:35;97228.53;;;13.32;87.90
19672;BME280;9983;51.114;13.788;2023-03-14T07:44:35;97231.03;;;13.55;85.75
19672;BME280;9983;51.114;13.788;2023-03-14T07:49:35;97231.66;;;13.62;85.70
19672;BME280;9983;51.114;13.788;2023-03-14T07:54:36;97228.91;;;13.57;86.44
19672;BME280;9983;51.114;13.788;2023-03-14T07:59:36;97227.31;;;13.23;86.20
19672;BME280;9983;51.114;13.788;2023-03-14T08:04:36;97223.16;;;13.71;86.80
19672;BME280;9983;51.114;13.788;2023-03-14T08:09:37;97209.63;;;14.09;85.08
19672;BME280;9983;51.114;13.788;2023-03-14T08:14:37;97215.47;;;14.01;85.63
19672;BME280;9983;51.114;13.788;2023-03-14T08:19:37;97191.81;;;14.08;84.02
19672;BME280;9983;51.114;13.788;2023-03-14T08:24:37;97210.38;;;13.83;85.12
19672;BME280;9983;51.114;13.788;2023-03-14T08:29:38;97200.31;;;14.43;83.70
19672;BME280;9983;51.114;13.788;2023-03-14T08:34:38;97197.22;;;14.08;82.83
19672;BME280;9983;51.114;13.788;2023-03-14T08:39:38;97196.72;;;14.11;80.97
19672;BME280;9983;51.114;13.788;2023-03-14T08:44:39;97193.69;;;14.29;81.39
19672;BME280;9983;51.114;13.788;2023-03-14T08:49:39;97183.69;;;14.03;76.81
19672;BME280;9983;51.114;13.788;2023-03-14T08:54:40;97199.84;;;13.59;77.93
19672;BME280;9983;51.114;13.788;2023-03-14T08:59:40;97185.75;;;14.18;77.52
19672;BME280;9983;51.114;13.788;2023-03-14T09:04:40;97196.31;;;14.24;74.60
19672;BME280;9983;51.114;13.788;2023-03-14T09:09:41;97208.44;;;14.00;75.38
19672;BME280;9983;51.114;13.788;2023-03-14T09:14:41;97203.81;;;13.95;75.37
19672;BME280;9983;51.114;13.788;2023-03-14T09:19:41;97198.63;;;13.89;75.55
19672;BME280;9983;51.114;13.788;2023-03-14T09:24:41;97206.38;;;13.63;76.25
19672;BME280;9983;51.114;13.788;2023-03-14T09:29:42;97210.50;;;13.93;74.41
19672;BME280;9983;51.114;13.788;2023-03-14T09:34:42;97215.81;;;13.66;75.03
19672;BME280;9983;51.114;13.788;2023-03-14T09:39:42;97218.84;;;14.13;74.12
19672;BME280;9983;51.114;13.788;2023-03-14T09:45:04;97214.72;;;14.32;74.51
19672;BME280;9983;51.114;13.788;2023-03-14T09:50:14;97219.75;;;14.46;72.29
19672;BME280;9983;51.114;13.788;2023-03-14T09:55:17;97225.56;;;14.59;71.30
19672;BME280;9983;51.114;13.788;2023-03-14T10:00:21;97232.66;;;14.43;72.19
19672;BME280;9983;51.114;13.788;2023-03-14T10:05:24;97234.50;;;13.94;73.39
19672;BME280;9983;51.114;13.788;2023-03-14T10:10:26;97231.66;;;14.50;71.84
19672;BME280;9983;51.114;13.788;2023-03-14T10:15:31;97238.19;;;14.54;69.48
19672;BME280;9983;51.114;13.788;2023-03-14T10:20:40;97222.03;;;14.10;71.53
19672;BME280;9983;51.114;13.788;2023-03-14T10:25:45;97241.94;;;14.09;71.67
19672;BME280;9983;51.114;13.788;2023-03-14T10:30:45;97225.56;;;13.89;71.42
19672;BME280;9983;51.114;13.788;2023-03-14T10:41:30;97220.38;;;14.53;70.07
19672;BME280;9983;51.114;13.788;2023-03-14T10:46:32;97213.94;;;14.59;69.82
19672;BME280;9983;51.114;13.788;2023-03-14T10:51:33;97211.34;;;13.72;69.75
19672;BME280;9983;51.114;13.788;2023-03-14T10:56:35;97214.53;;;14.12;70.54
19672;BME280;9983;51.114;13.788;2023-03-14T11:01:59;97219.75;;;14.46;70.23
19672;BME280;9983;51.114;13.788;2023-03-14T11:12:53;97216.53;;;14.00;69.62
19672;BME280;9983;51.114;13.788;2023-03-14T11:28:39;97206.72;;;14.37;67.70
19672;BME280;9983;51.114;13.788;2023-03-14T11:34:34;97199.59;;;14.80;67.05
19672;BME280;9983;51.114;13.788;2023-03-14T11:39:19;97199.41;;;15.29;65.04
19672;BME280;9983;51.114;13.788;2023-03-14T11:44:23;97191.38;;;15.39;64.92
19672;BME280;9983;51.114;13.788;2023-03-14T11:49:40;97181.41;;;15.02;64.53
19672;BME280;9983;51.114;13.788;2023-03-14T11:54:54;97176.69;;;15.19;65.13
19672;BME280;9983;51.114;13.788;2023-03-14T12:05:38;97171.38;;;15.40;64.03
19672;BME280;9983;51.114;13.788;2023-03-14T12:10:46;97162.13;;;15.21;63.68
19672;BME280;9983;51.114;13.788;2023-03-14T12:15:56;97151.44;;;15.41;64.34
19672;BME280;9983;51.114;13.788;2023-03-14T12:21:03;97149.75;;;15.30;64.03
19672;BME280;9983;51.114;13.788;2023-03-14T12:36:51;97144.94;;;15.37;61.14
19672;BME280;9983;51.114;13.788;2023-03-14T12:52:37;97145.38;;;15.24;61.71
19672;BME280;9983;51.114;13.788;2023-03-14T12:57:55;97146.25;;;14.87;65.63
19672;BME280;9983;51.114;13.788;2023-03-14T13:03:16;97139.38;;;15.11;65.78
19672;BME280;9983;51.114;13.788;2023-03-14T13:08:41;97127.44;;;16.12;61.33
19672;BME280;9983;51.114;13.788;2023-03-14T13:13:45;97118.22;;;17.39;58.77
19672;BME280;9983;51.114;13.788;2023-03-14T13:19:03;97128.44;;;15.85;58.00
19672;BME280;9983;51.114;13.788;2023-03-14T13:24:07;97105.88;;;16.67;57.79
19672;BME280;9983;51.114;13.788;2023-03-14T13:29:26;97108.53;;;16.42;58.22
19672;BME280;9983;51.114;13.788;2023-03-14T13:34:31;97126.91;;;16.20;58.78
19672;BME280;9983;51.114;13.788;2023-03-14T13:39:32;97107.97;;;16.25;58.61
19672;BME280;9983;51.114;13.788;2023-03-14T13:44:38;97110.91;;;15.36;60.35
19672;BME280;9983;51.114;13.788;2023-03-14T13:49:39;97103.53;;;15.68;60.01
19672;BME280;9983;51.114;13.788;2023-03-14T13:54:39;97109.47;;;15.75;60.09
19672;BME280;9983;51.114;13.788;2023-03-14T13:59:40;97103.31;;;15.28;60.25
19672;BME280;9983;51.114;13.788;2023-03-14T14:04:40;97092.84;;;16.34;57.76
19672;BME280;9983;51.114;13.788;2023-03-14T14:09:43;97097.63;;;15.81;58.83
19672;BME280;9983;51.114;13.788;2023-03-14T14:20:00;97093.22;;;15.65;59.73
19672;BME280;9983;51.114;13.788;2023-03-14T14:25:03;97080.44;;;16.89;56.30
19672;BME280;9983;51.114;13.788;2023-03-14T14:35:33;97069.06;;;18.88;49.09
19672;BME280;9983;51.114;13.788;2023-03-14T14:40:34;97080.78;;;17.57;51.67
19672;BME280;9983;51.114;13.788;2023-03-14T14:45:43;97068.88;;;17.42;50.90
19672;BME280;9983;51.114;13.788;2023-03-14T14:55:45;97062.53;;;15.97;55.08
19672;BME280;9983;51.114;13.788;2023-03-14T15:00:56;97066.88;;;16.03;55.55
19672;BME280;9983;51.114;13.788;2023-03-14T15:05:57;97064.16;;;16.99;52.85
19672;BME280;9983;51.114;13.788;2023-03-14T15:10:57;97060.63;;;18.56;48.31
19672;BME280;9983;51.114;13.788;2023-03-14T15:15:58;97067.34;;;18.98;47.76
19672;BME280;9983;51.114;13.788;2023-03-14T15:20:58;97072.41;;;18.02;50.05
19672;BME280;9983;51.114;13.788;2023-03-14T15:25:58;97069.06;;;16.77;53.32
19672;BME280;9983;51.114;13.788;2023-03-14T15:30:58;97081.47;;;17.03;53.87
19672;BME280;9983;51.114;13.788;2023-03-14T15:35:59;97084.13;;;15.86;57.64
19672;BME280;9983;51.114;13.788;2023-03-14T15:41:00;97080.66;;;16.16;57.26
19672;BME280;9983;51.114;13.788;2023-03-14T15:46:01;97088.50;;;16.13;57.41
19672;BME280;9983;51.114;13.788;2023-03-14T15:51:01;97083.91;;;16.03;58.36
19672;BME280;9983;51.114;13.788;2023-03-14T15:56:01;97092.72;;;15.68;60.15
19672;BME280;9983;51.114;13.788;2023-03-14T16:01:02;97104.59;;;15.62;60.48
19672;BME280;9983;51.114;13.788;2023-03-14T16:06:03;97117.56;;;15.70;60.76
19672;BME280;9983;51.114;13.788;2023-03-14T16:11:03;97106.00;;;15.23;62.00
19672;BME280;9983;51.114;13.788;2023-03-14T16:16:06;97125.75;;;14.91;63.72
19672;BME280;9983;51.114;13.788;2023-03-14T16:21:11;97123.06;;;14.27;66.94
19672;BME280;9983;51.114;13.788;2023-03-14T16:26:16;97154.69;;;14.10;68.63
19672;BME280;9983;51.114;13.788;2023-03-14T16:31:18;97185.34;;;13.60;75.80
19672;BME280;9983;51.114;13.788;2023-03-14T16:36:20;97219.66;;;13.15;88.54
19672;BME280;9983;51.114;13.788;2023-03-14T16:41:20;97241.78;;;12.55;100.00
19672;BME280;9983;51.114;13.788;2023-03-14T16:46:22;97353.97;;;11.08;100.00
19672;BME280;9983;51.114;13.788;2023-03-14T16:51:24;97387.19;;;9.43;100.00
19672;BME280;9983;51.114;13.788;2023-03-14T16:56:24;97408.75;;;8.85;100.00
19672;BME280;9983;51.114;13.788;2023-03-14T17:01:25;97455.94;;;8.60;100.00
19672;BME280;9983;51.114;13.788;2023-03-14T17:06:27;97461.72;;;8.37;100.00
19672;BME280;9983;51.114;13.788;2023-03-14T17:11:27;97513.91;;;8.13;100.00
19672;BME280;9983;51.114;13.788;2023-03-14T17:16:28;97551.69;;;7.84;100.00
19672;BME280;9983;51.114;13.788;2023-03-14T17:21:29;97570.88;;;7.40;100.00
19672;BME280;9983;51.114;13.788;2023-03-14T17:26:29;97633.84;;;7.00;100.00
19672;BME280;9983;51.114;13.788;2023-03-14T17:31:29;97716.06;;;6.26;100.00
19672;BME280;9983;51.114;13.788;2023-03-14T17:36:30;97800.19;;;5.47;100.00
19672;BME280;9983;51.114;13.788;2023-03-14T17:41:31;97812.72;;;4.86;100.00
19672;BME280;9983;51.114;13.788;2023-03-14T17:46:31;97839.38;;;5.45;100.00
19672;BME280;9983;51.114;13.788;2023-03-14T17:51:32;97867.94;;;5.13;100.00
19672;BME280;9983;51.114;13.788;2023-03-14T17:56:32;97876.63;;;5.07;100.00
19672;BME280;9983;51.114;13.788;2023-03-14T18:01:32;97904.53;;;5.03;100.00
19672;BME280;9983;51.114;13.788;2023-03-14T18:06:32;97953.00;;;5.05;100.00
19672;BME280;9983;51.114;13.788;2023-03-14T18:11:33;97965.56;;;5.34;100.00
19672;BME280;9983;51.114;13.788;2023-03-14T18:16:34;97978.69;;;5.36;100.00
19672;BME280;9983;51.114;13.788;2023-03-14T18:21:34;98003.13;;;5.08;100.00
19672;BME280;9983;51.114;13.788;2023-03-14T18:26:35;98020.72;;;5.09;100.00
19672;BME280;9983;51.114;13.788;2023-03-14T18:31:35;98037.53;;;5.02;100.00
19672;BME280;9983;51.114;13.788;2023-03-14T18:36:36;98051.25;;;5.05;100.00
19672;BME280;9983;51.114;13.788;2023-03-14T18:41:37;98070.84;;;5.04;100.00
19672;BME280;9983;51.114;13.788;2023-03-14T18:46:39;98086.28;;;4.62;100.00
19672;BME280;9983;51.114;13.788;2023-03-14T18:51:39;98095.16;;;4.93;100.00
19672;BME280;9983;51.114;13.788;2023-03-14T18:56:42;98096.38;;;5.13;100.00
19672;BME280;9983;51.114;13.788;2023-03-14T19:01:42;98098.06;;;5.06;100.00
19672;BME280;9983;51.114;13.788;2023-03-14T19:06:42;98114.22;;;4.96;100.00
19672;BME280;9983;51.114;13.788;2023-03-14T19:11:43;98123.66;;;4.99;100.00
19672;BME280;9983;51.114;13.788;2023-03-14T19:16:43;98140.28;;;5.01;100.00
19672;BME280;9983;51.114;13.788;2023-03-14T19:21:43;98150.94;;;4.85;100.00
19672;BME280;9983;51.114;13.788;2023-03-14T19:26:44;98173.03;;;5.24;100.00
19672;BME280;9983;51.114;13.788;2023-03-14T19:31:44;98198.22;;;4.89;100.00
19672;BME280;9983;51.114;13.788;2023-03-14T19:36:44;98212.16;;;5.00;100.00
19672;BME280;9983;51.114;13.788;2023-03-14T19:41:44;98225.22;;;5.17;100.00
19672;BME280;9983;51.114;13.788;2023-03-14T19:46:45;98229.88;;;5.07;100.00
19672;BME280;9983;51.114;13.788;2023-03-14T19:51:45;98232.50;;;5.15;100.00
19672;BME280;9983;51.114;13.788;2023-03-14T19:56:45;98254.13;;;5.04;100.00
19672;BME280;9983;51.114;13.788;2023-03-14T20:01:46;98248.78;;;5.12;100.00
19672;BME280;9983;51.114;13.788;2023-03-14T20:06:47;98271.06;;;4.95;100.00
19672;BME280;9983;51.114;13.788;2023-03-14T20:11:48;98289.84;;;4.69;100.00
19672;BME280;9983;51.114;13.788;2023-03-14T20:16:48;98306.34;;;5.36;100.00
19672;BME280;9983;51.114;13.788;2023-03-14T20:21:48;98312.91;;;5.64;100.00
19672;BME280;9983;51.114;13.788;2023-03-14T20:26:50;98332.47;;;5.24;100.00
19672;BME280;9983;51.114;13.788;2023-03-14T20:31:50;98333.13;;;5.02;100.00
19672;BME280;9983;51.114;13.788;2023-03-14T20:36:50;98343.91;;;5.25;100.00
19672;BME280;9983;51.114;13.788;2023-03-14T20:41:53;98356.56;;;5.70;100.00
19672;BME280;9983;51.114;13.788;2023-03-14T20:46:53;98367.47;;;5.52;100.00
19672;BME280;9983;51.114;13.788;2023-03-14T20:51:54;98369.78;;;5.47;100.00
19672;BME280;9983;51.114;13.788;2023-03-14T20:56:54;98376.28;;;5.28;100.00
19672;BME280;9983;51.114;13.788;2023-03-14T21:01:54;98374.91;;;5.57;100.00
19672;BME280;9983;51.114;13.788;2023-03-14T21:06:56;98385.59;;;5.16;100.00
19672;BME280;9983;51.114;13.788;2023-03-14T21:11:56;98393.53;;;5.49;100.00
19672;BME280;9983;51.114;13.788;2023-03-14T21:16:57;98410.13;;;4.78;100.00
19672;BME280;9983;51.114;13.788;2023-03-14T21:22:00;98420.13;;;5.32;100.00
19672;BME280;9983;51.114;13.788;2023-03-14T21:27:01;98427.59;;;5.21;100.00
19672;BME280;9983;51.114;13.788;2023-03-14T21:32:02;98441.41;;;5.24;100.00
19672;BME280;9983;51.114;13.788;2023-03-14T21:37:03;98444.38;;;5.13;100.00
19672;BME280;9983;51.114;13.788;2023-03-14T21:42:03;98456.00;;;5.12;100.00
19672;BME280;9983;51.114;13.788;2023-03-14T21:47:05;98462.13;;;4.96;100.00
19672;BME280;9983;51.114;13.788;2023-03-14T21:52:07;98472.16;;;4.61;100.00
19672;BME280;9983;51.114;13.788;2023-03-14T21:57:08;98484.50;;;4.86;100.00
19672;BME280;9983;51.114;13.788;2023-03-14T22:02:15;98486.56;;;4.50;100.00
19672;BME280;9983;51.114;13.788;2023-03-14T22:07:16;98498.09;;;4.67;100.00
19672;BME280;9983;51.114;13.788;2023-03-14T22:12:16;98507.34;;;4.63;100.00
19672;BME280;9983;51.114;13.788;2023-03-14T22:17:18;98515.38;;;4.87;100.00
19672;BME280;9983;51.114;13.788;2023-03-14T22:22:19;98516.38;;;4.94;100.00
19672;BME280;9983;51.114;13.788;2023-03-14T22:27:19;98527.66;;;4.88;100.00
19672;BME280;9983;51.114;13.788;2023-03-14T22:32:19;98531.03;;;5.06;100.00
19672;BME280;9983;51.114;13.788;2023-03-14T22:37:20;98546.81;;;5.00;97.97
19672;BME280;9983;51.114;13.788;2023-03-14T22:42:22;98562.94;;;4.64;100.00
19672;BME280;9983;51.114;13.788;2023-03-14T22:47:22;98573.03;;;4.61;100.00
19672;BME280;9983;51.114;13.788;2023-03-14T22:52:22;98580.53;;;4.65;100.00
19672;BME280;9983;51.114;13.788;2023-03-14T22:57:22;98582.63;;;4.53;100.00
19672;BME280;9983;51.114;13.788;2023-03-14T23:02:23;98589.59;;;4.54;100.00
19672;BME280;9983;51.114;13.788;2023-03-14T23:07:23;98586.41;;;4.77;100.00
19672;BME280;9983;51.114;13.788;2023-03-14T23:12:24;98597.91;;;4.51;100.00
19672;BME280;9983;51.114;13.788;2023-03-14T23:17:24;98604.09;;;4.34;100.00
19672;BME280;9983;51.114;13.788;2023-03-14T23:22:24;98614.56;;;4.44;100.00
19672;BME280;9983;51.114;13.788;2023-03-14T23:27:24;98611.16;;;4.51;100.00
19672;BME280;9983;51.114;13.788;2023-03-14T23:32:25;98621.41;;;4.46;100.00
19672;BME280;9983;51.114;13.788;2023-03-14T23:37:25;98625.00;;;4.37;100.00
19672;BME280;9983;51.114;13.788;2023-03-14T23:42:25;98634.06;;;4.27;100.00
19672;BME280;9983;51.114;13.788;2023-03-14T23:47:27;98639.13;;;4.20;100.00
19672;BME280;9983;51.114;13.788;2023-03-14T23:52:27;98643.34;;;4.05;100.00
19672;BME280;9983;51.114;13.788;2023-03-14T23:57:27;98650.06;;;4.17;100.00
